Time;durP1;ratioP1;P1;durP2;ratioP2;P2;SDS_P1;SDS_P2;PMS_P1;PMS_P2;Temp;Humidity;BMP_temperature;BMP_pressure;BME280_temperature;BME280_humidity;BME280_pressure;Samples;Min_cycle;Max_cycle;Signal;HPM_P1;HPM_P2
2021/03/06 00:01:40;;;;;;;8.48;5.00;;;20.60;53.40;;;;;;5022476;28;20061;-50
2021/03/06 00:04:06;;;;;;;9.20;4.88;;;20.60;53.50;;;;;;5018300;28;20105;-47
2021/03/06 00:06:32;;;;;;;8.90;4.38;;;20.60;53.30;;;;;;5024724;28;20109;-51
2021/03/06 00:08:57;;;;;;;9.07;4.55;;;20.60;53.20;;;;;;5018805;28;20030;-52
2021/03/06 00:11:23;;;;;;;8.07;4.72;;;20.60;53.20;;;;;;5021207;28;20030;-53
2021/03/06 00:13:49;;;;;;;6.60;4.25;;;20.60;53.10;;;;;;5005274;28;20025;-51
2021/03/06 00:16:14;;;;;;;6.93;3.92;;;20.60;53.00;;;;;;5020624;28;20465;-54
2021/03/06 00:18:40;;;;;;;5.88;4.15;;;20.60;53.50;;;;;;5020205;28;20030;-53
2021/03/06 00:21:06;;;;;;;8.73;4.30;;;20.60;52.80;;;;;;5021689;28;20036;-51
2021/03/06 00:23:31;;;;;;;7.43;3.95;;;20.60;52.60;;;;;;5021501;28;20026;-50
2021/03/06 00:25:57;;;;;;;7.80;3.90;;;20.60;52.60;;;;;;5021167;28;20021;-52
2021/03/06 00:28:23;;;;;;;5.80;4.07;;;20.60;52.60;;;;;;5019758;28;20033;-50
2021/03/06 00:30:49;;;;;;;7.05;4.72;;;20.50;52.40;;;;;;5022485;28;20045;-51
2021/03/06 00:33:14;;;;;;;8.02;4.07;;;20.50;52.40;;;;;;5021721;28;20060;-54
2021/03/06 00:35:40;;;;;;;8.45;4.22;;;20.50;52.40;;;;;;5021516;28;20037;-49
2021/03/06 00:38:06;;;;;;;7.07;3.47;;;20.50;52.30;;;;;;5023920;28;20037;-49
2021/03/06 00:40:31;;;;;;;7.03;3.97;;;20.50;52.20;;;;;;5023560;28;20037;-49
2021/03/06 00:42:57;;;;;;;7.13;3.78;;;20.50;52.20;;;;;;5026338;28;20121;-51
2021/03/06 00:45:23;;;;;;;7.53;4.00;;;20.50;52.10;;;;;;5023353;28;20049;-52
2021/03/06 00:47:49;;;;;;;8.82;3.25;;;20.50;52.00;;;;;;5026495;28;20041;-52
2021/03/06 00:50:22;;;;;;;6.15;3.13;;;20.50;52.00;;;;;;5026845;28;20377;-50
2021/03/06 00:52:48;;;;;;;10.07;3.22;;;20.50;51.80;;;;;;5025913;28;20026;-55
2021/03/06 00:55:13;;;;;;;7.18;3.63;;;20.50;51.80;;;;;;5028637;28;20542;-50
2021/03/06 00:57:39;;;;;;;6.25;3.40;;;20.50;51.70;;;;;;5025345;28;20049;-49
2021/03/06 01:00:06;;;;;;;5.47;3.20;;;20.50;51.60;;;;;;5025150;28;20100;-53
2021/03/06 01:02:32;;;;;;;7.68;3.05;;;20.50;51.60;;;;;;5022337;28;20374;-47
2021/03/06 01:04:57;;;;;;;6.57;3.53;;;20.50;51.50;;;;;;5025111;28;20052;-52
2021/03/06 01:07:23;;;;;;;6.05;3.53;;;20.50;51.40;;;;;;5025743;28;20478;-52
2021/03/06 01:09:48;;;;;;;6.30;3.58;;;20.50;51.40;;;;;;5021202;28;20117;-53
2021/03/06 01:12:14;;;;;;;5.55;3.45;;;20.50;51.40;;;;;;5023409;28;20387;-48
2021/03/06 01:14:40;;;;;;;5.68;3.28;;;20.50;51.20;;;;;;5025059;28;20029;-47
2021/03/06 01:17:05;;;;;;;4.55;3.08;;;20.50;51.10;;;;;;5023000;28;20036;-50
2021/03/06 01:19:31;;;;;;;6.25;2.95;;;20.50;51.00;;;;;;5004692;28;20041;-50
2021/03/06 01:21:57;;;;;;;6.15;3.28;;;20.60;51.00;;;;;;5022596;28;20041;-48
2021/03/06 01:24:22;;;;;;;5.95;3.13;;;20.60;50.80;;;;;;5020953;28;20053;-51
2021/03/06 01:26:49;;;;;;;6.45;3.03;;;20.60;50.80;;;;;;5007490;28;20041;-51
2021/03/06 01:29:15;;;;;;;4.65;2.80;;;20.60;50.70;;;;;;5024801;28;20078;-50
2021/03/06 01:31:41;;;;;;;3.90;2.78;;;20.60;50.70;;;;;;5001753;28;20636;-48
2021/03/06 01:34:06;;;;;;;4.78;2.83;;;20.60;50.70;;;;;;5024241;28;20073;-51
2021/03/06 01:36:32;;;;;;;4.20;2.83;;;20.50;50.60;;;;;;5022870;28;20026;-54
2021/03/06 01:38:57;;;;;;;4.05;2.20;;;20.50;50.60;;;;;;5022413;28;20037;-52
2021/03/06 01:41:23;;;;;;;4.28;2.40;;;20.50;50.50;;;;;;5022638;28;20055;-51
2021/03/06 01:43:49;;;;;;;3.83;2.55;;;20.50;50.50;;;;;;5022319;28;20026;-47
2021/03/06 01:46:14;;;;;;;3.63;2.38;;;20.50;50.40;;;;;;5021983;28;20038;-47
2021/03/06 01:48:40;;;;;;;3.58;2.33;;;20.50;50.40;;;;;;5023108;28;20645;-46
2021/03/06 01:51:05;;;;;;;4.75;2.55;;;20.50;50.40;;;;;;5021999;28;20487;-51
2021/03/06 01:53:31;;;;;;;3.92;2.17;;;20.50;50.40;;;;;;5023445;28;20029;-47
2021/03/06 01:55:57;;;;;;;4.82;2.75;;;20.50;50.30;;;;;;5022115;28;20029;-50
2021/03/06 01:58:22;;;;;;;4.30;2.40;;;20.50;50.30;;;;;;5021843;28;20087;-49
2021/03/06 02:00:48;;;;;;;3.78;2.20;;;20.50;50.20;;;;;;5021869;28;20037;-50
2021/03/06 02:03:14;;;;;;;3.05;2.67;;;20.50;50.20;;;;;;5024588;28;20033;-51
2021/03/06 02:05:40;;;;;;;7.15;3.42;;;20.50;50.10;;;;;;5019958;28;20038;-48
2021/03/06 02:08:06;;;;;;;4.55;2.40;;;20.50;50.00;;;;;;5021002;28;20025;-48
2021/03/06 02:10:36;;;;;;;4.25;2.40;;;20.50;50.00;;;;;;5022972;28;20025;-50
2021/03/06 02:13:21;;;;;;;4.28;2.50;;;20.50;49.90;;;;;;5022183;28;20037;-48
2021/03/06 02:15:59;;;;;;;4.38;2.30;;;20.50;49.80;;;;;;5024947;28;20029;-48
2021/03/06 02:18:33;;;;;;;5.93;2.25;;;20.50;49.80;;;;;;5021726;28;20026;-49
2021/03/06 02:21:23;;;;;;;4.47;2.97;;;20.50;49.70;;;;;;5024594;28;20052;-50
2021/03/06 02:23:58;;;;;;;3.67;2.53;;;20.50;49.70;;;;;;5024240;28;20033;-49
2021/03/06 02:26:32;;;;;;;3.58;2.20;;;20.50;49.70;;;;;;5021199;28;20053;-50
2021/03/06 02:29:42;;;;;;;4.65;2.15;;;20.50;49.60;;;;;;5022189;28;20079;-52
2021/03/06 02:32:34;;;;;;;3.75;2.38;;;20.50;49.60;;;;;;5018861;28;20041;-51
2021/03/06 02:35:07;;;;;;;4.47;2.17;;;20.50;49.60;;;;;;5023222;28;20048;-51
2021/03/06 02:37:36;;;;;;;2.63;1.95;;;20.50;50.30;;;;;;5022788;28;20083;-48
2021/03/06 02:40:02;;;;;;;4.47;2.40;;;20.50;49.40;;;;;;5021951;28;20478;-48
2021/03/06 02:42:30;;;;;;;2.88;1.92;;;20.50;49.40;;;;;;5019104;28;20037;-48
2021/03/06 02:44:57;;;;;;;2.72;2.13;;;20.50;49.30;;;;;;5019734;28;20368;-51
2021/03/06 02:47:24;;;;;;;4.28;1.85;;;20.50;49.30;;;;;;5023060;28;20032;-49
2021/03/06 02:49:51;;;;;;;3.55;2.17;;;20.50;49.30;;;;;;5022460;28;20083;-51
2021/03/06 02:52:17;;;;;;;2.97;2.00;;;20.50;49.20;;;;;;5022089;28;20033;-50
2021/03/06 02:54:43;;;;;;;3.60;2.00;;;20.50;49.20;;;;;;5022298;28;20038;-48
2021/03/06 02:57:09;;;;;;;3.08;1.88;;;20.50;49.10;;;;;;5022961;28;20030;-50
2021/03/06 02:59:57;;;;;;;3.50;2.13;;;20.50;49.10;;;;;;5020334;28;20076;-49
2021/03/06 03:02:52;;;;;;;2.80;1.70;;;20.50;49.10;;;;;;5019942;28;20057;-51
2021/03/06 03:05:46;;;;;;;3.47;2.05;;;20.50;49.00;;;;;;5015476;28;20534;-52
2021/03/06 03:08:22;;;;;;;3.47;2.45;;;20.50;49.00;;;;;;5024621;28;20550;-51
2021/03/06 03:10:55;;;;;;;4.75;1.95;;;20.50;49.00;;;;;;5024048;28;20037;-50
2021/03/06 03:13:26;;;;;;;2.70;1.67;;;20.50;48.80;;;;;;5018651;28;20115;-53
2021/03/06 03:16:01;;;;;;;2.83;1.98;;;20.50;48.80;;;;;;5019097;28;20037;-47
2021/03/06 03:18:31;;;;;;;4.97;2.15;;;20.50;48.90;;;;;;5022488;28;20032;-50
2021/03/06 03:21:00;;;;;;;2.42;1.95;;;20.50;48.80;;;;;;5021910;28;20033;-46
2021/03/06 03:23:38;;;;;;;2.13;1.80;;;20.50;48.70;;;;;;5021858;28;20036;-52
2021/03/06 03:26:09;;;;;;;2.45;1.63;;;20.50;48.70;;;;;;5022580;28;20053;-51
2021/03/06 03:28:37;;;;;;;3.75;2.60;;;20.50;48.60;;;;;;5004499;28;20045;-52
2021/03/06 03:31:04;;;;;;;3.67;1.95;;;20.50;48.60;;;;;;5020451;28;20082;-52
2021/03/06 03:33:30;;;;;;;3.13;1.95;;;20.50;48.60;;;;;;5021818;28;20132;-49
2021/03/06 03:35:57;;;;;;;4.15;1.83;;;20.60;48.50;;;;;;5020233;28;20095;-49
2021/03/06 03:38:23;;;;;;;2.53;1.70;;;20.50;48.40;;;;;;5003809;28;20026;-52
2021/03/06 03:40:49;;;;;;;2.80;1.70;;;20.50;48.40;;;;;;5021059;28;20030;-49
2021/03/06 03:43:16;;;;;;;2.60;1.67;;;20.50;48.40;;;;;;5019139;28;20088;-51
2021/03/06 03:45:42;;;;;;;3.15;1.80;;;20.50;48.40;;;;;;5019045;28;20180;-50
2021/03/06 03:48:09;;;;;;;2.88;1.75;;;20.50;48.30;;;;;;5023501;28;20486;-51
2021/03/06 03:50:35;;;;;;;1.92;1.33;;;20.50;48.30;;;;;;5020203;28;20052;-48
2021/03/06 03:53:01;;;;;;;4.00;1.63;;;20.50;48.20;;;;;;5022118;28;20033;-50
2021/03/06 03:55:27;;;;;;;1.80;1.40;;;20.50;48.20;;;;;;5020515;28;20377;-48
2021/03/06 03:57:54;;;;;;;2.85;1.73;;;20.50;48.20;;;;;;5020847;28;20542;-52
2021/03/06 04:00:22;;;;;;;2.90;1.67;;;20.50;48.20;;;;;;5017292;28;20033;-52
2021/03/06 04:02:48;;;;;;;2.63;1.52;;;20.50;48.10;;;;;;5022730;28;20036;-51
2021/03/06 04:05:14;;;;;;;1.98;1.58;;;20.50;48.10;;;;;;5003505;28;20026;-49
2021/03/06 04:07:44;;;;;;;2.05;1.60;;;20.50;48.00;;;;;;5020480;28;20013;-46
2021/03/06 04:10:12;;;;;;;2.85;1.70;;;20.50;48.00;;;;;;5023636;28;20081;-48
2021/03/06 04:12:39;;;;;;;3.80;2.05;;;20.50;47.90;;;;;;5024605;28;20033;-47
2021/03/06 04:15:07;;;;;;;2.60;1.40;;;20.50;47.90;;;;;;5023432;28;20033;-50
2021/03/06 04:17:32;;;;;;;1.55;1.15;;;20.50;47.90;;;;;;5025291;28;20541;-47
2021/03/06 04:19:58;;;;;;;2.05;1.63;;;20.50;47.80;;;;;;5024812;28;20116;-53
2021/03/06 04:22:24;;;;;;;2.10;1.40;;;20.50;47.70;;;;;;5024177;28;20116;-50
2021/03/06 04:24:50;;;;;;;2.22;1.58;;;20.60;47.70;;;;;;5026958;28;20429;-49
2021/03/06 04:27:15;;;;;;;2.13;1.40;;;20.50;47.70;;;;;;5027427;28;20034;-48
2021/03/06 04:29:41;;;;;;;2.38;1.35;;;20.50;47.60;;;;;;5033287;28;20661;-48
2021/03/06 04:32:07;;;;;;;5.30;2.08;;;20.50;47.60;;;;;;5033928;28;20033;-51
2021/03/06 04:34:32;;;;;;;2.50;1.08;;;20.50;47.50;;;;;;5014224;28;20486;-49
2021/03/06 04:36:58;;;;;;;3.25;2.03;;;20.60;47.50;;;;;;5029244;28;20037;-52
2021/03/06 04:39:23;;;;;;;2.92;1.98;;;20.60;47.50;;;;;;5032503;28;20390;-46
2021/03/06 04:41:49;;;;;;;2.38;1.60;;;20.60;47.40;;;;;;5033816;28;20059;-50
2021/03/06 04:44:15;;;;;;;2.22;1.27;;;20.50;47.40;;;;;;5033942;28;20025;-49
2021/03/06 04:46:41;;;;;;;2.13;1.30;;;20.60;47.40;;;;;;5031373;28;20022;-47
2021/03/06 04:49:06;;;;;;;1.77;1.10;;;20.60;47.40;;;;;;5033568;28;20374;-46
2021/03/06 04:51:32;;;;;;;2.03;1.20;;;20.50;47.20;;;;;;5029284;28;20052;-49
2021/03/06 04:53:58;;;;;;;1.80;1.30;;;20.60;47.30;;;;;;5031501;28;20038;-48
2021/03/06 04:56:24;;;;;;;1.83;1.30;;;20.60;47.30;;;;;;5031051;28;20022;-47
2021/03/06 04:58:50;;;;;;;2.22;1.40;;;20.60;47.30;;;;;;5029771;28;20116;-46
2021/03/06 05:01:16;;;;;;;2.30;1.70;;;20.60;47.20;;;;;;5032745;28;20429;-51
2021/03/06 05:03:42;;;;;;;1.35;1.00;;;20.60;47.20;;;;;;5032055;28;20037;-46
2021/03/06 05:06:07;;;;;;;1.70;1.27;;;20.60;47.10;;;;;;5032715;28;20030;-46
2021/03/06 05:08:33;;;;;;;2.38;1.25;;;20.60;47.20;;;;;;5028462;28;20036;-50
2021/03/06 05:10:59;;;;;;;1.23;1.00;;;20.60;47.10;;;;;;5032970;28;20038;-52
2021/03/06 05:13:24;;;;;;;2.08;1.00;;;20.60;47.10;;;;;;5028085;28;20037;-48
2021/03/06 05:15:50;;;;;;;1.95;1.23;;;20.60;47.00;;;;;;5032815;28;20100;-49
2021/03/06 05:18:16;;;;;;;1.90;1.38;;;20.60;47.00;;;;;;5030370;28;20396;-49
2021/03/06 05:20:41;;;;;;;2.72;1.23;;;20.60;47.00;;;;;;5013434;28;20630;-49
2021/03/06 05:23:07;;;;;;;2.90;1.60;;;20.60;46.90;;;;;;5032889;28;20037;-48
2021/03/06 05:25:32;;;;;;;1.60;1.30;;;20.50;46.80;;;;;;5031782;28;20049;-48
2021/03/06 05:27:58;;;;;;;1.70;1.13;;;20.50;46.70;;;;;;5032736;28;20030;-48
2021/03/06 05:30:24;;;;;;;2.08;1.10;;;20.60;46.80;;;;;;5032194;28;20026;-53
2021/03/06 05:32:50;;;;;;;1.60;1.23;;;20.60;46.80;;;;;;5032487;28;20126;-49
2021/03/06 05:35:15;;;;;;;1.73;1.27;;;20.60;46.80;;;;;;5032271;28;20107;-51
2021/03/06 05:37:41;;;;;;;1.70;1.00;;;20.60;46.70;;;;;;5031900;28;20028;-47
2021/03/06 05:40:07;;;;;;;1.67;1.17;;;20.60;46.80;;;;;;5032398;28;20489;-53
2021/03/06 05:42:36;;;;;;;4.25;1.33;;;20.60;46.70;;;;;;5031484;28;20379;-51
2021/03/06 05:45:03;;;;;;;2.22;1.40;;;20.60;46.70;;;;;;5032559;28;20127;-49
2021/03/06 05:47:31;;;;;;;2.90;1.45;;;20.60;46.60;;;;;;5030949;28;20040;-49
2021/03/06 05:49:56;;;;;;;2.30;1.33;;;20.60;46.60;;;;;;5032784;28;20044;-47
2021/03/06 05:52:23;;;;;;;3.47;1.38;;;20.60;46.60;;;;;;5026807;28;20034;-51
2021/03/06 05:54:50;;;;;;;2.10;1.30;;;20.60;46.60;;;;;;5030750;28;20026;-49
2021/03/06 05:57:17;;;;;;;2.28;1.25;;;20.60;46.50;;;;;;5013233;28;20025;-50
2021/03/06 05:59:47;;;;;;;1.80;1.33;;;20.60;46.50;;;;;;5024540;28;20475;-48
2021/03/06 06:02:16;;;;;;;1.50;1.13;;;20.60;46.40;;;;;;5007288;28;20034;-51
2021/03/06 06:04:43;;;;;;;2.08;1.20;;;20.60;46.40;;;;;;5021825;28;20088;-48
2021/03/06 06:07:09;;;;;;;1.40;1.23;;;20.60;46.40;;;;;;5023603;28;20026;-46
2021/03/06 06:09:35;;;;;;;2.13;1.13;;;20.60;46.40;;;;;;5022901;28;20138;-48
2021/03/06 06:12:04;;;;;;;1.98;1.38;;;20.60;46.30;;;;;;5023244;28;20022;-49
2021/03/06 06:14:30;;;;;;;2.17;1.30;;;20.60;46.30;;;;;;5023044;28;20475;-50
2021/03/06 06:16:56;;;;;;;2.17;1.25;;;20.60;46.20;;;;;;5023446;28;20033;-45
2021/03/06 06:19:22;;;;;;;1.40;1.10;;;20.60;46.20;;;;;;5022903;28;20131;-52
2021/03/06 06:21:49;;;;;;;2.08;1.38;;;20.60;46.10;;;;;;5023919;28;20044;-51
2021/03/06 06:24:22;;;;;;;2.42;1.40;;;20.60;46.10;;;;;;5021958;28;20127;-49
2021/03/06 06:27:02;;;;;;;2.58;1.42;;;20.60;46.10;;;;;;4986986;28;20029;-49
2021/03/06 06:29:40;;;;;;;2.65;1.40;;;20.60;46.10;;;;;;5006113;28;20552;-51
2021/03/06 06:32:08;;;;;;;3.20;1.65;;;20.60;46.10;;;;;;5025844;28;20034;-51
2021/03/06 06:34:36;;;;;;;1.90;1.35;;;20.60;46.00;;;;;;5020065;28;20138;-50
2021/03/06 06:37:10;;;;;;;2.72;1.50;;;20.60;46.10;;;;;;5024839;28;20395;-49
2021/03/06 06:39:36;;;;;;;3.05;1.40;;;20.60;46.10;;;;;;5018456;28;20033;-48
2021/03/06 06:42:03;;;;;;;2.95;1.60;;;20.60;46.00;;;;;;5024017;28;20041;-50
2021/03/06 06:44:30;;;;;;;3.17;1.55;;;20.60;46.10;;;;;;5022791;28;20056;-51
2021/03/06 06:46:58;;;;;;;2.53;1.42;;;20.60;46.00;;;;;;5019999;28;20026;-52
2021/03/06 06:49:24;;;;;;;2.35;1.40;;;20.60;46.10;;;;;;5023929;28;20423;-53
2021/03/06 06:52:01;;;;;;;2.88;1.45;;;20.60;45.80;;;;;;5019906;28;20044;-52
2021/03/06 06:54:28;;;;;;;2.45;1.65;;;20.60;45.90;;;;;;5022458;28;20422;-48
2021/03/06 06:57:10;;;;;;;2.90;1.15;;;20.60;45.90;;;;;;5021724;28;20494;-50
2021/03/06 06:59:37;;;;;;;1.83;1.30;;;20.60;45.90;;;;;;5021567;28;20038;-51
2021/03/06 07:02:09;;;;;;;10.77;2.05;;;20.60;45.80;;;;;;5021696;28;20032;-48
2021/03/06 07:04:42;;;;;;;;;;;20.60;45.90;;;;;;5020896;28;20029;-45
2021/03/06 07:07:09;;;;;;;;;;;20.60;46.00;;;;;;5015531;28;19963;-47
2021/03/06 07:09:34;;;;;;;3.97;1.67;;;20.70;46.70;;;;;;5020056;28;19912;-47
2021/03/06 07:12:15;;;;;;;3.78;1.55;;;20.70;46.40;;;;;;4999678;28;20036;-46
2021/03/06 07:14:41;;;;;;;2.83;1.60;;;20.60;46.50;;;;;;4994456;28;20041;-44
2021/03/06 07:17:07;;;;;;;5.65;1.50;;;20.60;46.50;;;;;;5013457;28;20269;-49
2021/03/06 07:19:41;;;;;;;5.20;1.75;;;20.70;46.70;;;;;;5023288;28;20471;-45
2021/03/06 07:22:06;;;;;;;3.53;1.40;;;20.70;46.60;;;;;;5005759;28;20111;-48
2021/03/06 07:24:32;;;;;;;6.05;1.60;;;20.70;46.60;;;;;;5021402;28;20049;-47
2021/03/06 07:26:58;;;;;;;5.20;1.65;;;20.70;46.60;;;;;;5006740;28;20025;-45
2021/03/06 07:29:25;;;;;;;4.22;1.63;;;20.70;46.70;;;;;;5019053;28;20033;-48
2021/03/06 07:31:53;;;;;;;1.98;1.33;;;20.80;46.70;;;;;;5019592;28;20026;-46
2021/03/06 07:34:20;;;;;;;5.28;1.63;;;20.80;46.70;;;;;;5021284;28;20053;-47
2021/03/06 07:36:47;;;;;;;2.42;1.38;;;20.80;46.60;;;;;;5022232;28;20529;-45
2021/03/06 07:39:14;;;;;;;2.28;1.38;;;20.80;46.60;;;;;;5020287;28;20113;-43
2021/03/06 07:41:47;;;;;;;5.43;1.27;;;20.80;46.70;;;;;;5022079;28;20022;-44
2021/03/06 07:44:15;;;;;;;1.88;1.20;;;20.80;46.60;;;;;;5024133;28;20485;-44
2021/03/06 07:46:41;;;;;;;1.73;1.10;;;20.80;46.60;;;;;;5024244;28;20030;-44
2021/03/06 07:49:16;;;;;;;2.72;1.33;;;20.80;46.50;;;;;;5025312;28;20033;-43
2021/03/06 07:51:46;;;;;;;3.03;1.20;;;20.80;46.50;;;;;;5025900;28;20033;-44
2021/03/06 07:54:16;;;;;;;3.78;1.40;;;20.90;46.50;;;;;;5023747;28;20029;-45
2021/03/06 07:56:42;;;;;;;3.05;1.55;;;20.80;46.30;;;;;;5024786;28;20096;-45
2021/03/06 07:59:08;;;;;;;6.45;1.30;;;20.90;46.40;;;;;;5022481;28;20033;-47
2021/03/06 08:01:35;;;;;;;3.80;1.48;;;20.80;46.30;;;;;;5025876;28;20041;-43
2021/03/06 08:04:05;;;;;;;2.70;1.33;;;20.80;46.20;;;;;;5010639;28;20387;-44
2021/03/06 08:06:34;;;;;;;2.20;1.20;;;20.90;46.30;;;;;;5023791;28;20030;-47
2021/03/06 08:09:04;;;;;;;6.82;1.10;;;20.90;46.30;;;;;;5007044;28;20133;-43
2021/03/06 08:11:41;;;;;;;4.38;1.42;;;20.90;46.20;;;;;;5026958;28;20029;-44
2021/03/06 08:14:25;;;;;;;4.22;1.05;;;20.80;46.10;;;;;;5034363;28;20022;-46
2021/03/06 08:16:51;;;;;;;4.20;1.13;;;20.90;46.20;;;;;;5034109;28;20036;-47
2021/03/06 08:19:21;;;;;;;4.10;1.40;;;20.90;46.10;;;;;;5034171;28;20029;-44
2021/03/06 08:21:48;;;;;;;3.28;1.30;;;20.90;46.10;;;;;;5033373;28;20042;-44
2021/03/06 08:24:14;;;;;;;3.63;1.30;;;20.90;46.10;;;;;;5024800;28;20030;-45
2021/03/06 08:26:52;;;;;;;3.28;1.30;;;20.90;46.10;;;;;;5032795;28;20140;-47
2021/03/06 08:29:21;;;;;;;3.65;1.27;;;20.90;46.10;;;;;;5032030;28;20462;-43
2021/03/06 08:32:02;;;;;;;2.95;1.20;;;20.90;46.00;;;;;;5015125;28;20478;-43
2021/03/06 08:34:30;;;;;;;4.45;1.17;;;20.90;46.00;;;;;;5027554;28;20057;-51
2021/03/06 08:39:45;;;;;;;10.07;1.55;;;20.90;46.30;;;;;;5029450;28;20044;-46
2021/03/06 08:42:14;;;;;;;7.28;1.52;;;20.90;46.50;;;;;;5030582;28;20037;-43
2021/03/06 08:44:39;;;;;;;5.88;1.20;;;21.00;46.60;;;;;;5029797;28;20033;-43
2021/03/06 08:47:06;;;;;;;6.80;1.38;;;20.90;46.50;;;;;;5033078;28;20037;-45
2021/03/06 08:49:33;;;;;;;7.18;1.30;;;20.90;46.70;;;;;;5032642;28;20025;-45
2021/03/06 08:51:58;;;;;;;7.15;1.42;;;21.00;46.90;;;;;;5033713;28;20553;-49
2021/03/06 08:54:25;;;;;;;9.63;1.80;;;21.00;47.10;;;;;;5015780;28;20032;-49
2021/03/06 08:56:51;;;;;;;6.10;1.27;;;21.00;47.00;;;;;;5032737;28;20112;-49
2021/03/06 08:59:17;;;;;;;3.10;1.48;;;21.00;47.10;;;;;;5032991;28;20088;-48
2021/03/06 09:01:45;;;;;;;9.82;1.33;;;21.00;47.10;;;;;;5014969;28;20126;-48
2021/03/06 09:04:12;;;;;;;14.70;2.95;;;21.00;47.20;;;;;;5033424;28;20520;-44
2021/03/06 09:06:39;;;;;;;5.18;1.67;;;21.00;47.20;;;;;;5033502;28;20100;-45
2021/03/06 09:09:08;;;;;;;6.43;1.98;;;21.00;47.50;;;;;;5032493;28;20047;-42
2021/03/06 09:11:34;;;;;;;4.13;1.50;;;21.00;47.50;;;;;;5032039;28;20033;-42
2021/03/06 09:14:00;;;;;;;8.27;1.55;;;21.10;47.70;;;;;;5031915;28;20034;-45
2021/03/06 09:16:25;;;;;;;13.77;3.10;;;21.10;47.80;;;;;;5032504;28;20030;-47
2021/03/06 09:18:51;;;;;;;7.68;2.13;;;21.00;47.70;;;;;;5032663;28;20030;-43
2021/03/06 09:21:25;;;;;;;7.55;1.40;;;21.00;47.70;;;;;;5032870;28;20040;-45
2021/03/06 09:23:54;;;;;;;4.10;1.30;;;21.00;47.70;;;;;;5032379;28;20045;-45
2021/03/06 09:26:27;;;;;;;9.38;2.00;;;21.10;47.80;;;;;;5009203;28;20029;-49
2021/03/06 09:28:55;;;;;;;11.55;1.92;;;21.00;47.70;;;;;;5032017;28;20033;-46
2021/03/06 09:31:27;;;;;;;8.70;1.70;;;21.00;48.00;;;;;;5031591;28;20037;-46
2021/03/06 09:33:54;;;;;;;7.43;1.65;;;21.10;47.90;;;;;;5029439;28;20053;-48
2021/03/06 09:36:21;;;;;;;8.35;2.25;;;21.10;47.80;;;;;;5011664;28;20033;-42
2021/03/06 09:38:54;;;;;;;4.68;1.45;;;21.00;47.80;;;;;;5031438;28;20116;-46
2021/03/06 09:41:21;;;;;;;8.00;2.15;;;21.10;47.80;;;;;;5023259;28;20083;-47
2021/03/06 09:43:55;;;;;;;7.13;1.70;;;21.00;47.90;;;;;;5028920;28;20648;-48
2021/03/06 09:46:32;;;;;;;5.07;1.38;;;21.00;47.80;;;;;;5029384;28;20072;-43
2021/03/06 09:49:02;;;;;;;10.48;1.65;;;21.00;47.80;;;;;;5030278;28;20033;-44
2021/03/06 09:51:52;;;;;;;12.75;1.83;;;21.00;48.10;;;;;;5031133;28;20033;-49
2021/03/06 09:54:21;;;;;;;11.23;2.15;;;21.10;48.00;;;;;;5032123;28;20536;-51
2021/03/06 09:56:49;;;;;;;10.73;1.88;;;21.10;48.00;;;;;;5029097;28;20053;-47
2021/03/06 09:59:15;;;;;;;9.75;2.13;;;21.10;48.00;;;;;;5031241;28;20117;-48
2021/03/06 10:01:40;;;;;;;5.28;1.77;;;21.10;48.10;;;;;;5029700;28;20104;-46
2021/03/06 10:04:15;;;;;;;6.93;1.65;;;21.20;48.00;;;;;;5027072;28;20079;-44
2021/03/06 10:06:48;;;;;;;6.53;2.28;;;21.20;47.90;;;;;;5026146;28;20030;-45
2021/03/06 10:09:15;;;;;;;13.68;2.63;;;21.20;47.90;;;;;;5024822;28;20025;-46
2021/03/06 10:11:44;;;;;;;9.63;2.10;;;21.20;48.10;;;;;;5030261;28;20037;-45
2021/03/06 10:14:11;;;;;;;10.98;2.65;;;21.20;48.20;;;;;;5030478;28;20037;-46
2021/03/06 10:16:51;;;;;;;8.18;2.10;;;21.20;47.80;;;;;;5030060;28;20029;-45
2021/03/06 10:19:18;;;;;;;7.35;1.92;;;21.20;47.20;;;;;;5023675;28;20029;-44
2021/03/06 10:22:06;;;;;;;9.57;2.13;;;21.20;47.40;;;;;;5034092;28;20025;-51
2021/03/06 10:24:52;;;;;;;6.13;2.30;;;21.20;47.10;;;;;;5022074;28;20068;-45
2021/03/06 10:27:31;;;;;;;6.65;2.45;;;21.20;46.60;;;;;;5015756;28;20505;-48
2021/03/06 10:30:25;;;;;;;9.60;2.92;;;21.20;46.60;;;;;;5028070;28;20037;-50
2021/03/06 10:32:56;;;;;;;8.73;2.85;;;21.20;46.90;;;;;;5029650;28;20064;-51
2021/03/06 10:35:29;;;;;;;5.47;2.00;;;21.20;46.50;;;;;;5030145;28;20375;-48
2021/03/06 10:37:55;;;;;;;6.80;2.13;;;21.20;46.50;;;;;;5031638;28;20041;-45
2021/03/06 10:40:39;;;;;;;8.32;1.90;;;21.20;46.00;;;;;;5031262;28;20025;-52
2021/03/06 10:43:05;;;;;;;6.30;1.90;;;21.20;46.10;;;;;;5015060;28;20037;-48
2021/03/06 10:45:31;;;;;;;10.95;1.98;;;21.20;45.60;;;;;;5027142;28;20045;-47
2021/03/06 10:47:59;;;;;;;5.00;1.67;;;21.10;45.40;;;;;;5011994;28;20466;-50
2021/03/06 10:50:39;;;;;;;3.70;1.73;;;21.10;44.90;;;;;;5031250;28;20398;-49
2021/03/06 10:53:15;;;;;;;7.72;1.90;;;21.10;45.10;;;;;;5023159;28;20099;-47
2021/03/06 10:55:42;;;;;;;4.00;1.50;;;21.10;44.70;;;;;;5026001;28;20037;-45
2021/03/06 10:58:08;;;;;;;2.53;1.40;;;21.00;44.80;;;;;;5030223;28;20690;-45
2021/03/06 11:00:35;;;;;;;3.90;1.80;;;21.00;44.60;;;;;;5030341;28;20037;-48
2021/03/06 11:03:03;;;;;;;6.95;1.65;;;21.00;44.30;;;;;;5030305;28;20037;-49
2021/03/06 11:05:29;;;;;;;2.85;1.45;;;20.90;42.70;;;;;;5026659;28;20056;-49
2021/03/06 11:07:59;;;;;;;6.47;2.03;;;20.90;43.60;;;;;;5026135;28;20234;-47
2021/03/06 11:10:29;;;;;;;2.28;1.40;;;20.90;43.70;;;;;;5030964;28;20187;-43
2021/03/06 11:12:57;;;;;;;4.95;1.25;;;20.90;43.60;;;;;;5022902;28;20034;-49
2021/03/06 11:15:26;;;;;;;4.10;1.50;;;20.90;43.70;;;;;;5010858;28;20025;-48
2021/03/06 11:17:55;;;;;;;3.60;1.25;;;20.90;43.60;;;;;;5028754;28;20108;-49
2021/03/06 11:20:26;;;;;;;2.60;1.60;;;20.90;43.80;;;;;;5012829;28;20116;-44
2021/03/06 11:22:52;;;;;;;6.30;1.90;;;21.00;42.80;;;;;;5029905;28;20033;-49
2021/03/06 11:25:18;;;;;;;2.42;1.30;;;21.00;42.90;;;;;;5024675;28;20054;-46
2021/03/06 11:27:54;;;;;;;6.28;1.70;;;21.00;42.90;;;;;;5027863;28;20100;-46
2021/03/06 11:30:42;;;;;;;6.43;2.20;;;21.00;42.60;;;;;;5025157;28;20037;-44
2021/03/06 11:33:15;;;;;;;7.05;1.60;;;20.90;43.70;;;;;;5005221;28;20068;-44
2021/03/06 11:35:42;;;;;;;7.63;2.25;;;20.90;43.10;;;;;;5028644;28;20033;-48
2021/03/06 11:38:10;;;;;;;5.63;1.52;;;20.90;42.70;;;;;;5030537;28;20163;-48
2021/03/06 11:40:37;;;;;;;4.68;1.50;;;20.90;42.70;;;;;;5028033;28;20136;-49
2021/03/06 11:43:03;;;;;;;4.47;1.35;;;20.90;43.10;;;;;;5026224;28;20033;-46
2021/03/06 11:45:29;;;;;;;5.30;1.70;;;20.90;43.00;;;;;;5027685;28;20099;-49
2021/03/06 11:47:56;;;;;;;5.25;1.65;;;20.90;43.60;;;;;;5026291;28;20044;-49
2021/03/06 11:50:25;;;;;;;6.70;1.58;;;20.90;43.80;;;;;;5030252;28;20044;-44
2021/03/06 11:52:52;;;;;;;11.75;1.58;;;20.90;43.50;;;;;;5028466;28;20505;-46
2021/03/06 11:55:18;;;;;;;4.93;1.55;;;21.00;43.70;;;;;;5029341;28;20057;-46
2021/03/06 11:57:44;;;;;;;13.63;1.83;;;20.90;44.00;;;;;;5027297;28;20064;-47
2021/03/06 12:00:12;;;;;;;9.68;1.52;;;20.90;43.40;;;;;;5029190;28;20041;-48
2021/03/06 12:02:38;;;;;;;6.18;1.73;;;20.90;43.20;;;;;;5029398;28;20044;-54
2021/03/06 12:05:08;;;;;;;2.65;1.30;;;21.00;42.70;;;;;;5024378;28;20038;-45
2021/03/06 12:07:34;;;;;;;4.68;2.00;;;20.90;41.90;;;;;;5023034;28;20026;-48
2021/03/06 12:10:00;;;;;;;4.53;1.60;;;20.80;38.20;;;;;;5029806;28;20440;-45
2021/03/06 12:12:26;;;;;;;2.90;1.48;;;20.80;34.30;;;;;;5021512;28;20025;-51
2021/03/06 12:14:52;;;;;;;9.55;1.73;;;20.60;32.60;;;;;;5012221;28;20105;-46
2021/03/06 12:17:18;;;;;;;5.93;1.63;;;20.50;32.70;;;;;;5029130;28;20383;-44
2021/03/06 12:19:43;;;;;;;2.58;1.60;;;20.50;32.20;;;;;;5029737;28;20476;-49
2021/03/06 12:22:09;;;;;;;2.28;1.85;;;20.50;31.50;;;;;;5029515;28;20026;-49
2021/03/06 12:24:35;;;;;;;2.83;1.77;;;20.60;29.40;;;;;;5028471;28;20233;-51
2021/03/06 12:27:00;;;;;;;2.88;1.65;;;20.60;30.20;;;;;;5012356;28;20033;-47
2021/03/06 12:29:26;;;;;;;4.65;1.52;;;20.60;29.00;;;;;;5028448;28;20028;-51
2021/03/06 12:31:52;;;;;;;1.95;1.17;;;20.60;29.50;;;;;;5032979;28;20030;-48
2021/03/06 12:34:17;;;;;;;2.90;1.52;;;20.50;29.20;;;;;;5033769;28;20478;-49
2021/03/06 12:36:44;;;;;;;1.92;1.27;;;20.50;28.90;;;;;;5023765;28;20077;-53
2021/03/06 12:39:10;;;;;;;2.05;1.50;;;20.50;30.00;;;;;;5033091;28;20025;-49
2021/03/06 12:41:36;;;;;;;3.13;1.20;;;20.50;30.80;;;;;;5032013;28;20033;-51
2021/03/06 12:44:02;;;;;;;2.20;1.05;;;20.60;31.60;;;;;;5027074;28;20211;-55
2021/03/06 12:46:27;;;;;;;3.95;1.42;;;20.60;32.80;;;;;;5022667;28;20036;-52
2021/03/06 12:48:53;;;;;;;3.58;1.60;;;20.60;33.10;;;;;;5033599;28;20437;-57
2021/03/06 12:51:19;;;;;;;4.25;1.42;;;20.60;33.50;;;;;;5032054;28;20030;-48
2021/03/06 12:53:45;;;;;;;2.72;1.35;;;20.70;33.80;;;;;;5030804;28;20037;-52
2021/03/06 12:56:11;;;;;;;1.90;1.42;;;20.70;34.30;;;;;;5033446;28;20352;-48
2021/03/06 12:58:37;;;;;;;4.95;1.35;;;20.70;34.40;;;;;;5031516;28;20124;-48